createdAt,value
2023-05-03T00:01:44.851Z,8.02
2023-05-03T00:04:16.060Z,7.90
2023-05-03T00:06:45.032Z,7.99
2023-05-03T00:09:15.176Z,7.99
2023-05-03T00:11:44.065Z,7.89
2023-05-03T00:14:12.472Z,7.83
2023-05-03T00:16:40.721Z,7.77
2023-05-03T00:19:15.059Z,7.78
2023-05-03T00:21:52.950Z,7.64
2023-05-03T00:24:22.908Z,7.64
2023-05-03T00:26:51.661Z,7.56
2023-05-03T00:29:21.274Z,7.48
2023-05-03T00:31:49.836Z,7.43
2023-05-03T00:34:17.854Z,7.39
2023-05-03T00:36:46.314Z,7.32
2023-05-03T00:39:16.853Z,7.21
2023-05-03T00:41:46.676Z,7.26
2023-05-03T00:44:14.966Z,7.18
2023-05-03T00:46:43.198Z,7.14
2023-05-03T00:49:11.482Z,7.11
2023-05-03T00:51:39.808Z,7.11
2023-05-03T00:54:08.498Z,7.04
2023-05-03T00:56:47.829Z,7.09
2023-05-03T00:59:21.569Z,7.04
2023-05-03T01:01:51.176Z,6.97
2023-05-03T01:04:20.945Z,6.95
2023-05-03T01:07:00.659Z,7.05
2023-05-03T01:09:36.820Z,6.94
2023-05-03T01:12:18.649Z,6.87
2023-05-03T01:15:00.269Z,6.84
2023-05-03T01:17:30.696Z,6.91
2023-05-03T01:20:08.511Z,6.88
2023-05-03T01:22:45.622Z,6.88
2023-05-03T01:25:17.002Z,6.92
2023-05-03T01:27:45.836Z,6.82
2023-05-03T01:30:15.139Z,6.78
2023-05-03T01:32:52.588Z,6.90
2023-05-03T01:35:29.325Z,6.88
2023-05-03T01:37:59.454Z,6.83
2023-05-03T01:40:31.208Z,6.73
2023-05-03T01:43:01.099Z,6.70
2023-05-03T01:45:29.732Z,6.75
2023-05-03T01:47:58.876Z,6.67
2023-05-03T01:50:27.735Z,6.69
2023-05-03T01:52:56.008Z,6.56
2023-05-03T01:55:24.245Z,6.56
2023-05-03T01:57:54.172Z,6.54
2023-05-03T02:00:23.052Z,6.52
2023-05-03T02:02:51.437Z,6.46
2023-05-03T02:05:20.055Z,6.39
2023-05-03T02:07:49.109Z,6.33
2023-05-03T02:10:17.519Z,6.40
2023-05-03T02:12:46.611Z,6.34
2023-05-03T02:15:16.951Z,6.38
2023-05-03T02:17:45.874Z,6.30
2023-05-03T02:20:14.729Z,6.20
2023-05-03T02:22:43.827Z,6.21
2023-05-03T02:25:12.036Z,6.21
2023-05-03T02:27:41.050Z,6.13
2023-05-03T02:30:10.934Z,6.11
2023-05-03T02:32:40.720Z,6.07
2023-05-03T02:35:09.991Z,6.11
2023-05-03T02:37:38.676Z,6.03
2023-05-03T02:40:08.917Z,5.98
2023-05-03T02:42:37.581Z,5.93
2023-05-03T02:45:06.854Z,5.94
2023-05-03T02:47:35.180Z,5.89
2023-05-03T02:50:06.649Z,5.76
2023-05-03T02:52:35.001Z,5.71
2023-05-03T02:55:03.821Z,5.66
2023-05-03T02:57:32.378Z,5.67
2023-05-03T03:00:01.020Z,5.72
2023-05-03T03:02:29.594Z,5.63
2023-05-03T03:04:58.111Z,5.72
2023-05-03T03:07:28.478Z,5.59
2023-05-03T03:09:57.362Z,5.48
2023-05-03T03:12:26.775Z,5.54
2023-05-03T03:14:55.257Z,5.47
2023-05-03T03:17:23.723Z,5.43
2023-05-03T03:19:52.031Z,5.43
2023-05-03T03:22:20.318Z,5.28
2023-05-03T03:24:50.918Z,5.27
2023-05-03T03:27:21.705Z,5.27
2023-05-03T03:29:50.368Z,5.14
2023-05-03T03:32:18.890Z,5.20
2023-05-03T03:34:47.783Z,5.20
2023-05-03T03:37:16.144Z,5.09
2023-05-03T03:39:44.915Z,5.13
2023-05-03T03:42:18.977Z,5.09
2023-05-03T03:44:47.428Z,5.20
2023-05-03T03:47:15.630Z,5.13
2023-05-03T03:49:44.333Z,5.14
2023-05-03T03:52:14.240Z,5.17
2023-05-03T03:54:42.955Z,5.14
2023-05-03T03:57:11.062Z,5.12
2023-05-03T03:59:44.715Z,5.12
2023-05-03T04:02:14.427Z,5.16
2023-05-03T04:04:42.763Z,5.17
2023-05-03T04:07:12.207Z,5.10
2023-05-03T04:09:40.469Z,5.23
2023-05-03T04:12:09.270Z,5.11
2023-05-03T04:14:38.167Z,5.13
2023-05-03T04:17:08.616Z,5.13
2023-05-03T04:19:38.723Z,5.26
2023-05-03T04:22:07.558Z,5.16
2023-05-03T04:24:36.399Z,5.31
2023-05-03T04:27:04.987Z,5.36
2023-05-03T04:29:35.232Z,5.29
2023-05-03T04:32:04.498Z,5.31
2023-05-03T04:34:34.641Z,5.34
2023-05-03T04:37:03.028Z,5.43
2023-05-03T04:39:31.380Z,5.45
2023-05-03T04:42:02.578Z,5.44
2023-05-03T04:44:31.148Z,5.59
2023-05-03T04:47:00.206Z,5.54
2023-05-03T04:49:28.834Z,5.64
2023-05-03T04:51:59.331Z,5.72
2023-05-03T04:54:27.954Z,5.78
2023-05-03T04:56:57.200Z,5.72
2023-05-03T04:59:25.935Z,5.85
2023-05-03T05:01:54.733Z,5.76
2023-05-03T05:04:23.441Z,5.84
2023-05-03T05:06:53.379Z,5.88
2023-05-03T05:09:27.872Z,5.87
2023-05-03T05:11:57.339Z,5.79
2023-05-03T05:14:28.055Z,5.77
2023-05-03T05:16:56.918Z,5.74
2023-05-03T05:19:25.512Z,5.77
2023-05-03T05:21:54.939Z,5.82
2023-05-03T05:24:23.722Z,5.88
2023-05-03T05:26:54.557Z,6.00
2023-05-03T05:29:23.150Z,6.07
2023-05-03T05:31:52.406Z,6.11
2023-05-03T05:34:22.174Z,6.20
2023-05-03T05:36:53.169Z,6.25
2023-05-03T05:39:23.538Z,6.24
2023-05-03T05:41:54.285Z,6.27
2023-05-03T05:44:23.305Z,6.24
2023-05-03T05:46:52.177Z,6.18
2023-05-03T05:49:21.499Z,6.40
2023-05-03T05:51:50.403Z,6.31
2023-05-03T05:54:18.785Z,6.49
2023-05-03T05:56:47.743Z,6.45
2023-05-03T05:59:18.240Z,6.53
2023-05-03T06:01:47.314Z,6.50
2023-05-03T06:04:16.292Z,6.55
2023-05-03T06:06:45.223Z,6.54
2023-05-03T06:09:24.117Z,6.84
2023-05-03T06:11:53.513Z,6.82
2023-05-03T06:14:23.265Z,6.81
2023-05-03T06:16:55.051Z,6.81
2023-05-03T06:19:24.778Z,6.84
2023-05-03T06:21:53.742Z,7.12
2023-05-03T06:24:22.417Z,7.30
2023-05-03T06:26:50.697Z,7.40
2023-05-03T06:29:19.159Z,7.41
2023-05-03T06:31:49.860Z,7.29
2023-05-03T06:34:22.095Z,7.51
2023-05-03T06:36:51.895Z,7.52
2023-05-03T06:39:20.604Z,7.51
2023-05-03T06:41:49.433Z,7.53
2023-05-03T06:44:18.336Z,7.51
2023-05-03T06:46:46.927Z,7.44
2023-05-03T06:49:17.248Z,7.42
2023-05-03T06:51:46.365Z,7.39
2023-05-03T06:54:16.021Z,7.72
2023-05-03T06:56:44.752Z,7.85
2023-05-03T06:59:13.002Z,7.90
2023-05-03T07:01:41.751Z,8.09
2023-05-03T07:04:10.275Z,8.38
2023-05-03T07:06:52.480Z,8.35
2023-05-03T07:09:35.782Z,8.36
2023-05-03T07:12:11.062Z,8.53
2023-05-03T07:14:40.195Z,8.66
2023-05-03T07:17:10.255Z,8.66
2023-05-03T07:19:38.722Z,9.04
2023-05-03T07:22:08.803Z,9.41
2023-05-03T07:24:38.164Z,9.64
2023-05-03T07:27:07.295Z,9.60
2023-05-03T07:29:36.180Z,9.30
2023-05-03T07:32:05.324Z,9.50
2023-05-03T07:34:34.322Z,9.58
2023-05-03T07:37:02.736Z,9.64
2023-05-03T07:39:33.389Z,9.58
2023-05-03T07:42:02.430Z,9.98
2023-05-03T07:44:31.841Z,9.97
2023-05-03T07:47:01.058Z,9.89
2023-05-03T07:49:29.975Z,9.82
2023-05-03T07:52:03.113Z,9.88
2023-05-03T07:54:35.319Z,9.88
2023-05-03T07:57:04.160Z,9.96
2023-05-03T07:59:32.796Z,9.88
2023-05-03T08:02:01.977Z,10.04
2023-05-03T08:04:30.900Z,10.17
2023-05-03T08:07:02.722Z,10.44
2023-05-03T08:09:32.711Z,10.46
2023-05-03T08:12:02.865Z,10.45
2023-05-03T08:14:31.267Z,10.51
2023-05-03T08:17:00.395Z,10.46
2023-05-03T08:19:29.412Z,10.54
2023-05-03T08:21:58.868Z,10.74
2023-05-03T08:24:28.234Z,10.74
2023-05-03T08:26:59.270Z,10.73
2023-05-03T08:29:28.491Z,10.61
2023-05-03T08:31:58.241Z,10.84
2023-05-03T08:34:30.433Z,10.70
2023-05-03T08:36:59.763Z,10.79
2023-05-03T08:39:28.339Z,10.73
2023-05-03T08:41:58.665Z,11.03
2023-05-03T08:44:32.142Z,11.19
2023-05-03T08:47:01.802Z,10.89
2023-05-03T08:49:32.537Z,11.14
2023-05-03T08:52:02.524Z,11.39
2023-05-03T08:54:31.309Z,11.39
2023-05-03T08:57:02.029Z,11.46
2023-05-03T08:59:32.331Z,11.52
2023-05-03T09:02:00.919Z,11.65
2023-05-03T09:04:35.337Z,11.61
2023-05-03T09:07:10.595Z,11.71
2023-05-03T09:09:40.217Z,11.85
2023-05-03T09:12:11.468Z,11.88
2023-05-03T09:14:48.059Z,11.69
2023-05-03T09:17:18.318Z,11.72
2023-05-03T09:19:54.713Z,11.74
2023-05-03T09:22:27.409Z,12.04
2023-05-03T09:24:58.189Z,12.22
2023-05-03T09:27:29.674Z,12.38
2023-05-03T09:29:58.279Z,12.43
2023-05-03T09:32:31.138Z,12.61
2023-05-03T09:35:11.611Z,12.34
2023-05-03T09:37:40.300Z,12.40
2023-05-03T09:40:11.902Z,12.78
2023-05-03T09:43:05.045Z,13.10
2023-05-03T09:45:34.659Z,13.13
2023-05-03T09:48:06.214Z,13.23
2023-05-03T09:50:36.050Z,13.21
2023-05-03T09:53:07.640Z,13.33
2023-05-03T09:55:38.283Z,13.37
2023-05-03T09:58:09.868Z,13.19
2023-05-03T10:00:40.722Z,13.22
2023-05-03T10:03:12.046Z,13.12
2023-05-03T10:05:47.665Z,13.08
2023-05-03T10:08:24.886Z,13.16
2023-05-03T10:10:54.530Z,13.62
2023-05-03T10:13:25.987Z,13.85
2023-05-03T10:16:01.215Z,14.01
2023-05-03T10:18:34.083Z,14.46
2023-05-03T10:21:06.391Z,14.66
2023-05-03T10:23:34.978Z,14.06
2023-05-03T10:26:17.299Z,14.34
2023-05-03T10:28:48.299Z,14.02
2023-05-03T10:31:46.521Z,13.73
2023-05-03T10:34:34.392Z,13.79
2023-05-03T10:37:04.617Z,13.40
2023-05-03T10:39:33.535Z,13.61
2023-05-03T10:42:05.064Z,13.64
2023-05-03T10:44:42.973Z,13.77
2023-05-03T10:47:14.734Z,14.00
2023-05-03T10:49:46.443Z,14.12
2023-05-03T10:52:47.821Z,14.15
2023-05-03T10:55:18.440Z,14.43
2023-05-03T10:57:48.667Z,14.30
2023-05-03T11:00:26.001Z,14.86
2023-05-03T11:03:14.285Z,15.02
2023-05-03T11:05:43.341Z,15.16
2023-05-03T11:08:14.039Z,14.86
2023-05-03T11:10:43.578Z,15.34
2023-05-03T11:13:12.893Z,15.42
2023-05-03T11:15:44.839Z,15.04
2023-05-03T11:18:16.938Z,14.81
2023-05-03T11:20:46.069Z,14.52
2023-05-03T11:23:15.529Z,14.21
2023-05-03T11:25:44.476Z,14.42
2023-05-03T11:28:13.930Z,14.20
2023-05-03T11:30:43.975Z,14.06
2023-05-03T11:33:14.428Z,14.09
2023-05-03T11:35:43.779Z,14.40
2023-05-03T11:38:12.599Z,14.73
2023-05-03T11:40:41.917Z,15.09
2023-05-03T11:43:10.316Z,15.57
2023-05-03T11:45:44.878Z,15.50
2023-05-03T11:48:15.911Z,15.39
2023-05-03T11:50:49.145Z,15.55
2023-05-03T11:53:18.533Z,15.41
2023-05-03T11:55:49.477Z,15.21
2023-05-03T11:58:22.266Z,14.77
2023-05-03T12:00:52.202Z,14.88
2023-05-03T12:03:27.737Z,14.44
2023-05-03T12:06:01.873Z,14.79
2023-05-03T12:08:36.396Z,15.06
2023-05-03T12:11:09.865Z,15.00
2023-05-03T12:13:40.675Z,14.88
2023-05-03T12:16:14.378Z,15.44
2023-05-03T12:18:50.296Z,15.47
2023-05-03T12:23:56.000Z,16.05
2023-05-03T12:26:26.176Z,15.93
2023-05-03T12:28:56.851Z,15.94
2023-05-03T12:31:29.121Z,15.77
2023-05-03T12:36:37.165Z,16.05
2023-05-03T12:39:10.141Z,15.76
2023-05-03T12:42:06.395Z,15.37
2023-05-03T12:44:29.348Z,15.15
2023-05-03T12:47:01.117Z,14.79
2023-05-03T12:49:31.961Z,14.95
2023-05-03T12:52:33.028Z,15.00
2023-05-03T12:54:55.240Z,15.35
2023-05-03T12:57:26.847Z,15.44
2023-05-03T13:00:03.062Z,15.75
2023-05-03T13:05:13.110Z,15.09
2023-05-03T13:07:56.133Z,15.36
2023-05-03T13:10:27.602Z,15.94
2023-05-03T13:12:57.265Z,15.92
2023-05-03T13:15:27.593Z,16.02
2023-05-03T13:17:57.600Z,15.81
2023-05-03T13:20:29.497Z,15.79
2023-05-03T13:22:59.129Z,15.90
2023-05-03T13:25:29.652Z,15.99
2023-05-03T13:27:58.445Z,16.06
2023-05-03T13:30:27.899Z,16.07
2023-05-03T13:32:57.070Z,16.29
2023-05-03T13:35:28.082Z,16.28
2023-05-03T13:37:57.119Z,16.07
2023-05-03T13:40:26.313Z,16.03
2023-05-03T13:42:55.823Z,16.24
2023-05-03T13:45:26.146Z,16.38
2023-05-03T13:48:11.831Z,16.40
2023-05-03T13:50:46.986Z,15.90
2023-05-03T13:53:16.771Z,15.65
2023-05-03T13:55:45.940Z,15.88
2023-05-03T13:58:15.150Z,16.02
2023-05-03T14:00:44.087Z,16.35
2023-05-03T14:03:13.297Z,16.43
2023-05-03T14:05:44.063Z,15.97
2023-05-03T14:08:15.672Z,15.95
2023-05-03T14:10:45.354Z,15.66
2023-05-03T14:13:14.635Z,15.76
2023-05-03T14:15:44.268Z,15.74
2023-05-03T14:18:13.353Z,15.76
2023-05-03T14:20:42.556Z,16.04
2023-05-03T14:23:11.837Z,16.26
2023-05-03T14:25:43.105Z,16.24
2023-05-03T14:28:11.920Z,16.24
2023-05-03T14:30:40.761Z,16.40
2023-05-03T14:33:10.307Z,16.60
2023-05-03T14:35:38.861Z,16.48
2023-05-03T14:38:07.870Z,16.38
2023-05-03T14:40:36.387Z,16.12
2023-05-03T14:43:08.233Z,15.84
2023-05-03T14:45:37.876Z,16.04
2023-05-03T14:48:07.964Z,16.25
2023-05-03T14:50:36.680Z,16.26
2023-05-03T14:53:05.381Z,16.13
2023-05-03T14:55:33.816Z,16.18
2023-05-03T14:58:02.662Z,16.27
2023-05-03T15:00:33.232Z,16.41
2023-05-03T15:03:01.871Z,16.56
2023-05-03T15:05:31.860Z,16.65
2023-05-03T15:08:01.116Z,16.29
2023-05-03T15:10:29.372Z,16.45
2023-05-03T15:12:58.315Z,16.46
2023-05-03T15:15:27.162Z,16.29
2023-05-03T15:17:58.616Z,16.39
2023-05-03T15:20:27.622Z,16.48
2023-05-03T15:22:56.674Z,16.76
2023-05-03T15:25:25.335Z,16.94
2023-05-03T15:27:54.008Z,16.69
2023-05-03T15:30:22.562Z,16.58
2023-05-03T15:32:52.122Z,16.64
2023-05-03T15:35:22.991Z,16.88
2023-05-03T15:37:51.764Z,16.78
2023-05-03T15:40:23.777Z,16.79
2023-05-03T15:42:53.264Z,16.92
2023-05-03T15:45:23.444Z,16.90
2023-05-03T15:47:52.883Z,17.32
2023-05-03T15:50:22.735Z,18.67
2023-05-03T15:52:51.340Z,19.70
2023-05-03T15:55:20.473Z,19.83
2023-05-03T15:57:49.969Z,19.79
2023-05-03T16:00:20.440Z,19.39
2023-05-03T16:02:51.689Z,20.67
2023-05-03T16:05:20.802Z,20.31
2023-05-03T16:07:51.571Z,20.82
2023-05-03T16:10:23.426Z,21.26
2023-05-03T16:12:53.085Z,22.43
2023-05-03T16:15:21.848Z,22.42
2023-05-03T16:17:50.227Z,22.57
2023-05-03T16:20:19.213Z,23.82
2023-05-03T16:22:49.256Z,24.37
2023-05-03T16:25:20.911Z,25.24
2023-05-03T16:27:49.975Z,24.94
2023-05-03T16:30:19.836Z,25.38
2023-05-03T16:32:50.116Z,25.20
2023-05-03T16:35:19.201Z,24.17
2023-05-03T16:37:50.669Z,23.46
2023-05-03T16:40:22.179Z,22.74
2023-05-03T16:42:53.009Z,22.48
2023-05-03T16:45:22.680Z,21.07
2023-05-03T16:47:53.125Z,19.74
2023-05-03T16:50:22.149Z,18.69
2023-05-03T16:52:52.213Z,18.16
2023-05-03T16:55:26.583Z,17.57
2023-05-03T16:57:55.725Z,17.53
2023-05-03T17:00:24.767Z,17.91
2023-05-03T17:02:54.900Z,17.70
2023-05-03T17:05:26.926Z,17.45
2023-05-03T17:07:55.369Z,17.07
2023-05-03T17:10:27.230Z,16.74
2023-05-03T17:12:57.380Z,16.46
2023-05-03T17:15:26.570Z,16.36
2023-05-03T17:17:55.981Z,16.26
2023-05-03T17:20:25.787Z,16.22
2023-05-03T17:22:58.044Z,15.98
2023-05-03T17:25:28.749Z,16.05
2023-05-03T17:27:57.509Z,16.05
2023-05-03T17:30:26.869Z,15.94
2023-05-03T17:32:56.809Z,15.94
2023-05-03T17:35:26.447Z,15.93
2023-05-03T17:37:55.734Z,15.84
2023-05-03T17:40:27.059Z,15.77
2023-05-03T17:42:57.991Z,15.69
2023-05-03T17:45:28.192Z,15.73
2023-05-03T17:47:59.245Z,15.73
2023-05-03T17:50:28.203Z,15.45
2023-05-03T17:52:58.640Z,15.44
2023-05-03T17:55:29.125Z,15.49
2023-05-03T17:58:00.632Z,15.42
2023-05-03T18:00:29.870Z,15.39
2023-05-03T18:02:59.285Z,15.22
2023-05-03T18:05:28.141Z,15.14
2023-05-03T18:07:57.004Z,15.21
2023-05-03T18:10:26.192Z,15.07
2023-05-03T18:12:56.066Z,15.07
2023-05-03T18:15:26.638Z,15.02
2023-05-03T18:17:57.101Z,14.87
2023-05-03T18:20:25.962Z,14.80
2023-05-03T18:22:54.812Z,14.63
2023-05-03T18:25:23.952Z,14.47
2023-05-03T18:27:54.589Z,14.23
2023-05-03T18:30:23.575Z,14.16
2023-05-03T18:32:54.797Z,14.13
2023-05-03T18:35:24.246Z,13.92
2023-05-03T18:37:53.651Z,13.83
2023-05-03T18:40:22.872Z,13.69
2023-05-03T18:42:51.950Z,13.53
2023-05-03T18:45:22.319Z,13.48
2023-05-03T18:47:53.321Z,13.46
2023-05-03T18:50:22.047Z,13.22
2023-05-03T18:52:51.600Z,13.03
2023-05-03T18:55:21.064Z,13.17
2023-05-03T18:57:50.200Z,13.06
2023-05-03T19:00:20.109Z,12.88
2023-05-03T19:02:49.408Z,12.91
2023-05-03T19:05:20.273Z,12.86
2023-05-03T19:07:50.245Z,12.73
2023-05-03T19:10:19.996Z,12.64
2023-05-03T19:12:51.398Z,12.68
2023-05-03T19:15:21.268Z,12.61
2023-05-03T19:17:51.213Z,12.60
2023-05-03T19:20:21.877Z,12.51
2023-05-03T19:22:50.846Z,12.34
2023-05-03T19:25:21.539Z,12.12
2023-05-03T19:27:51.704Z,12.02
2023-05-03T19:30:21.379Z,11.94
2023-05-03T19:32:50.960Z,11.80
2023-05-03T19:35:21.633Z,11.82
2023-05-03T19:37:50.594Z,11.70
2023-05-03T19:40:19.360Z,11.74
2023-05-03T19:42:48.435Z,11.80
2023-05-03T19:45:17.405Z,11.77
2023-05-03T19:47:46.556Z,11.65
2023-05-03T19:50:15.890Z,11.49
2023-05-03T19:52:46.330Z,11.40
2023-05-03T19:55:15.781Z,11.42
2023-05-03T19:57:44.587Z,11.41
2023-05-03T20:00:16.116Z,11.48
2023-05-03T20:02:44.739Z,11.43
2023-05-03T20:05:14.404Z,11.37
2023-05-03T20:07:43.543Z,11.42
2023-05-03T20:10:14.425Z,11.51
2023-05-03T20:12:43.507Z,11.28
2023-05-03T20:15:13.979Z,11.25
2023-05-03T20:17:43.227Z,11.19
2023-05-03T20:20:12.774Z,11.08
2023-05-03T20:22:41.592Z,11.11
2023-05-03T20:25:11.165Z,11.01
2023-05-03T20:27:42.541Z,10.98
2023-05-03T20:30:11.670Z,10.83
2023-05-03T20:32:41.150Z,10.85
2023-05-03T20:35:12.282Z,10.85
2023-05-03T20:37:41.563Z,10.82
2023-05-03T20:40:12.656Z,10.76
2023-05-03T20:42:45.106Z,10.89
2023-05-03T20:45:14.439Z,10.86
2023-05-03T20:47:42.840Z,10.81
2023-05-03T20:50:12.425Z,10.74
2023-05-03T20:52:41.320Z,10.61
2023-05-03T20:55:10.509Z,10.76
2023-05-03T20:57:45.362Z,10.59
2023-05-03T21:00:16.712Z,10.66
2023-05-03T21:02:46.819Z,10.53
2023-05-03T21:05:15.325Z,10.71
2023-05-03T21:07:43.970Z,10.62
2023-05-03T21:10:12.530Z,10.77
2023-05-03T21:12:43.044Z,10.77
2023-05-03T21:15:12.607Z,10.84
2023-05-03T21:17:41.060Z,10.87
2023-05-03T21:20:11.401Z,10.75
2023-05-03T21:22:39.668Z,10.68
2023-05-03T21:25:09.372Z,10.54
2023-05-03T21:27:38.015Z,10.42
2023-05-03T21:30:09.578Z,10.51
2023-05-03T21:32:38.293Z,10.42
2023-05-03T21:35:08.162Z,10.34
2023-05-03T21:37:37.266Z,10.45
2023-05-03T21:40:07.540Z,10.35
2023-05-03T21:42:35.953Z,10.34
2023-05-03T21:45:04.696Z,10.22
2023-05-03T21:47:35.020Z,10.20
2023-05-03T21:50:06.573Z,10.14
2023-05-03T21:52:35.440Z,10.00
2023-05-03T21:55:04.185Z,9.95
2023-05-03T21:57:33.329Z,9.82
2023-05-03T22:00:02.048Z,9.70
2023-05-03T22:02:34.353Z,9.61
2023-05-03T22:05:04.673Z,9.53
2023-05-03T22:07:33.921Z,9.57
2023-05-03T22:10:03.208Z,9.41
2023-05-03T22:12:32.058Z,9.43
2023-05-03T22:15:00.689Z,9.29
2023-05-03T22:17:29.223Z,9.23
2023-05-03T22:19:58.228Z,9.14
2023-05-03T22:22:28.635Z,9.09
2023-05-03T22:24:57.515Z,9.05
2023-05-03T22:27:26.194Z,9.06
2023-05-03T22:29:55.008Z,8.79
2023-05-03T22:32:23.565Z,8.86
2023-05-03T22:34:52.058Z,8.73
2023-05-03T22:37:22.803Z,8.75
2023-05-03T22:39:53.077Z,8.83
2023-05-03T22:42:21.316Z,8.71
2023-05-03T22:44:50.464Z,8.62
2023-05-03T22:47:18.924Z,8.53
2023-05-03T22:49:47.688Z,8.42
2023-05-03T22:52:16.009Z,8.36
2023-05-03T22:54:44.653Z,8.29
2023-05-03T22:57:14.516Z,8.35
2023-05-03T22:59:47.488Z,8.30
2023-05-03T23:02:17.816Z,8.26
2023-05-03T23:04:46.198Z,8.12
2023-05-03T23:07:14.746Z,8.01
2023-05-03T23:09:43.383Z,7.89
2023-05-03T23:12:11.944Z,7.74
2023-05-03T23:14:44.014Z,7.82
2023-05-03T23:17:12.810Z,7.78
2023-05-03T23:19:41.212Z,7.76
2023-05-03T23:22:09.693Z,7.75
2023-05-03T23:24:38.874Z,7.81
2023-05-03T23:27:08.298Z,7.81
2023-05-03T23:29:37.439Z,7.69
2023-05-03T23:32:08.928Z,7.68
2023-05-03T23:34:37.968Z,7.55
2023-05-03T23:37:06.237Z,7.46
2023-05-03T23:39:37.038Z,7.29
2023-05-03T23:42:06.562Z,7.26
2023-05-03T23:44:50.381Z,7.32
2023-05-03T23:47:24.287Z,7.31
2023-05-03T23:49:52.734Z,7.32
2023-05-03T23:52:22.010Z,7.25
2023-05-03T23:54:50.962Z,7.18
2023-05-03T23:57:19.194Z,7.10
2023-05-03T23:59:47.463Z,6.94
